sensor_id;sensor_type;location;lat;lon;timestamp;P1;durP1;ratioP1;P2;durP2;ratioP2
66597;SDS011;57424;53.128;6.406;2022-09-20T00:01:15;2.85;;;1.10;;
66597;SDS011;57424;53.128;6.406;2022-09-20T00:03:45;3.58;;;1.00;;
66597;SDS011;57424;53.128;6.406;2022-09-20T00:06:13;3.90;;;1.23;;
66597;SDS011;57424;53.128;6.406;2022-09-20T00:08:40;2.50;;;0.80;;
66597;SDS011;57424;53.128;6.406;2022-09-20T00:11:08;1.45;;;0.82;;
66597;SDS011;57424;53.128;6.406;2022-09-20T00:13:43;6.57;;;1.35;;
66597;SDS011;57424;53.128;6.406;2022-09-20T00:16:10;1.83;;;0.83;;
66597;SDS011;57424;53.128;6.406;2022-09-20T00:18:38;2.17;;;0.88;;
66597;SDS011;57424;53.128;6.406;2022-09-20T00:21:04;4.55;;;1.10;;
66597;SDS011;57424;53.128;6.406;2022-09-20T00:23:30;2.83;;;0.80;;
66597;SDS011;57424;53.128;6.406;2022-09-20T00:25:57;2.55;;;0.73;;
66597;SDS011;57424;53.128;6.406;2022-09-20T00:30:51;2.13;;;1.00;;
66597;SDS011;57424;53.128;6.406;2022-09-20T00:33:17;2.97;;;0.90;;
66597;SDS011;57424;53.128;6.406;2022-09-20T00:35:43;3.67;;;1.00;;
66597;SDS011;57424;53.128;6.406;2022-09-20T00:38:09;1.98;;;0.95;;
66597;SDS011;57424;53.128;6.406;2022-09-20T00:43:03;2.03;;;0.68;;
66597;SDS011;57424;53.128;6.406;2022-09-20T00:45:28;1.88;;;0.80;;
66597;SDS011;57424;53.128;6.406;2022-09-20T00:50:52;2.03;;;0.80;;
66597;SDS011;57424;53.128;6.406;2022-09-20T00:53:33;4.22;;;0.90;;
66597;SDS011;57424;53.128;6.406;2022-09-20T00:58:31;4.90;;;0.80;;
66597;SDS011;57424;53.128;6.406;2022-09-20T01:01:00;1.73;;;0.75;;
66597;SDS011;57424;53.128;6.406;2022-09-20T01:05:55;1.17;;;0.95;;
66597;SDS011;57424;53.128;6.406;2022-09-20T01:08:23;2.33;;;0.80;;
66597;SDS011;57424;53.128;6.406;2022-09-20T01:10:49;2.22;;;1.00;;
66597;SDS011;57424;53.128;6.406;2022-09-20T01:13:15;3.78;;;0.82;;
66597;SDS011;57424;53.128;6.406;2022-09-20T01:15:41;2.90;;;0.70;;
66597;SDS011;57424;53.128;6.406;2022-09-20T01:18:10;1.58;;;0.68;;
66597;SDS011;57424;53.128;6.406;2022-09-20T01:20:37;2.20;;;0.70;;
66597;SDS011;57424;53.128;6.406;2022-09-20T01:25:56;3.05;;;1.15;;
66597;SDS011;57424;53.128;6.406;2022-09-20T01:28:33;2.50;;;0.85;;
66597;SDS011;57424;53.128;6.406;2022-09-20T01:33:51;2.22;;;0.80;;
66597;SDS011;57424;53.128;6.406;2022-09-20T01:37:10;2.38;;;0.93;;
66597;SDS011;57424;53.128;6.406;2022-09-20T01:42:08;2.08;;;0.65;;
66597;SDS011;57424;53.128;6.406;2022-09-20T01:47:34;2.53;;;0.80;;
66597;SDS011;57424;53.128;6.406;2022-09-20T01:50:14;3.22;;;0.90;;
66597;SDS011;57424;53.128;6.406;2022-09-20T01:55:50;1.83;;;0.70;;
66597;SDS011;57424;53.128;6.406;2022-09-20T02:04:44;2.47;;;0.95;;
66597;SDS011;57424;53.128;6.406;2022-09-20T02:10:46;2.33;;;0.70;;
66597;SDS011;57424;53.128;6.406;2022-09-20T02:38:21;1.30;;;0.70;;
66597;SDS011;57424;53.128;6.406;2022-09-20T02:46:02;1.60;;;0.50;;
66597;SDS011;57424;53.128;6.406;2022-09-20T02:48:35;1.92;;;0.60;;
66597;SDS011;57424;53.128;6.406;2022-09-20T02:51:15;2.63;;;1.00;;
66597;SDS011;57424;53.128;6.406;2022-09-20T02:54:02;1.25;;;0.52;;
66597;SDS011;57424;53.128;6.406;2022-09-20T02:56:49;3.80;;;0.80;;
66597;SDS011;57424;53.128;6.406;2022-09-20T02:59:30;1.77;;;0.68;;
66597;SDS011;57424;53.128;6.406;2022-09-20T03:02:09;1.48;;;0.55;;
66597;SDS011;57424;53.128;6.406;2022-09-20T03:10:46;1.70;;;0.60;;
66597;SDS011;57424;53.128;6.406;2022-09-20T03:25:32;1.97;;;0.70;;
66597;SDS011;57424;53.128;6.406;2022-09-20T03:36:41;1.75;;;0.68;;
66597;SDS011;57424;53.128;6.406;2022-09-20T03:56:32;1.13;;;0.60;;
66597;SDS011;57424;53.128;6.406;2022-09-20T03:59:19;2.03;;;0.55;;
66597;SDS011;57424;53.128;6.406;2022-09-20T04:02:13;2.60;;;0.60;;
66597;SDS011;57424;53.128;6.406;2022-09-20T04:05:02;1.02;;;0.52;;
66597;SDS011;57424;53.128;6.406;2022-09-20T04:18:29;2.05;;;0.60;;
66597;SDS011;57424;53.128;6.406;2022-09-20T04:23:44;2.22;;;0.68;;
66597;SDS011;57424;53.128;6.406;2022-09-20T04:26:21;3.03;;;0.77;;
66597;SDS011;57424;53.128;6.406;2022-09-20T04:28:53;1.85;;;0.70;;
66597;SDS011;57424;53.128;6.406;2022-09-20T04:34:11;3.53;;;0.90;;
66597;SDS011;57424;53.128;6.406;2022-09-20T04:45:39;1.80;;;0.65;;
66597;SDS011;57424;53.128;6.406;2022-09-20T05:02:19;1.73;;;0.60;;
66597;SDS011;57424;53.128;6.406;2022-09-20T05:07:25;0.98;;;0.68;;
66597;SDS011;57424;53.128;6.406;2022-09-20T05:15:43;1.58;;;0.50;;
66597;SDS011;57424;53.128;6.406;2022-09-20T05:21:54;1.33;;;0.60;;
66597;SDS011;57424;53.128;6.406;2022-09-20T05:30:18;1.40;;;0.50;;
66597;SDS011;57424;53.128;6.406;2022-09-20T05:35:35;2.22;;;0.60;;
66597;SDS011;57424;53.128;6.406;2022-09-20T05:41:55;0.77;;;0.40;;
66597;SDS011;57424;53.128;6.406;2022-09-20T05:52:43;1.17;;;0.80;;
66597;SDS011;57424;53.128;6.406;2022-09-20T05:55:18;0.80;;;0.30;;
66597;SDS011;57424;53.128;6.406;2022-09-20T05:58:14;1.75;;;0.50;;
66597;SDS011;57424;53.128;6.406;2022-09-20T06:00:48;1.13;;;0.60;;
66597;SDS011;57424;53.128;6.406;2022-09-20T06:03:41;1.27;;;0.60;;
66597;SDS011;57424;53.128;6.406;2022-09-20T06:15:18;1.97;;;0.53;;
66597;SDS011;57424;53.128;6.406;2022-09-20T06:23:27;0.65;;;0.40;;
66597;SDS011;57424;53.128;6.406;2022-09-20T06:25:55;0.73;;;0.45;;
66597;SDS011;57424;53.128;6.406;2022-09-20T06:28:30;0.45;;;0.40;;
66597;SDS011;57424;53.128;6.406;2022-09-20T06:30:57;1.65;;;0.50;;
66597;SDS011;57424;53.128;6.406;2022-09-20T06:33:23;0.55;;;0.47;;
66597;SDS011;57424;53.128;6.406;2022-09-20T06:41:48;1.30;;;0.60;;
66597;SDS011;57424;53.128;6.406;2022-09-20T06:44:15;0.98;;;0.43;;
66597;SDS011;57424;53.128;6.406;2022-09-20T06:46:40;2.95;;;0.60;;
66597;SDS011;57424;53.128;6.406;2022-09-20T06:49:06;7.03;;;0.90;;
66597;SDS011;57424;53.128;6.406;2022-09-20T06:51:34;2.13;;;0.80;;
66597;SDS011;57424;53.128;6.406;2022-09-20T06:54:02;2.13;;;0.60;;
66597;SDS011;57424;53.128;6.406;2022-09-20T06:56:30;1.92;;;0.70;;
66597;SDS011;57424;53.128;6.406;2022-09-20T06:58:58;2.15;;;0.60;;
66597;SDS011;57424;53.128;6.406;2022-09-20T07:01:23;1.75;;;0.68;;
66597;SDS011;57424;53.128;6.406;2022-09-20T07:03:49;1.63;;;0.60;;
66597;SDS011;57424;53.128;6.406;2022-09-20T07:06:14;2.35;;;0.50;;
66597;SDS011;57424;53.128;6.406;2022-09-20T07:08:42;2.22;;;0.70;;
66597;SDS011;57424;53.128;6.406;2022-09-20T07:11:11;1.92;;;0.75;;
66597;SDS011;57424;53.128;6.406;2022-09-20T07:13:41;1.58;;;0.70;;
66597;SDS011;57424;53.128;6.406;2022-09-20T07:16:09;3.13;;;0.90;;
66597;SDS011;57424;53.128;6.406;2022-09-20T07:18:37;3.40;;;0.65;;
66597;SDS011;57424;53.128;6.406;2022-09-20T07:21:04;3.63;;;0.70;;
66597;SDS011;57424;53.128;6.406;2022-09-20T07:23:30;4.15;;;0.80;;
66597;SDS011;57424;53.128;6.406;2022-09-20T07:25:56;3.58;;;0.80;;
66597;SDS011;57424;53.128;6.406;2022-09-20T07:28:29;3.22;;;0.70;;
66597;SDS011;57424;53.128;6.406;2022-09-20T07:30:57;2.25;;;0.80;;
66597;SDS011;57424;53.128;6.406;2022-09-20T07:33:22;1.30;;;0.57;;
66597;SDS011;57424;53.128;6.406;2022-09-20T07:35:49;4.07;;;0.77;;
66597;SDS011;57424;53.128;6.406;2022-09-20T07:38:17;1.23;;;0.50;;
66597;SDS011;57424;53.128;6.406;2022-09-20T07:40:43;1.88;;;1.00;;
66597;SDS011;57424;53.128;6.406;2022-09-20T07:43:10;1.17;;;0.60;;
66597;SDS011;57424;53.128;6.406;2022-09-20T07:45:35;2.30;;;0.60;;
66597;SDS011;57424;53.128;6.406;2022-09-20T07:48:03;2.13;;;0.73;;
66597;SDS011;57424;53.128;6.406;2022-09-20T07:50:30;1.52;;;0.63;;
66597;SDS011;57424;53.128;6.406;2022-09-20T07:52:56;3.58;;;0.90;;
66597;SDS011;57424;53.128;6.406;2022-09-20T07:55:22;1.13;;;0.70;;
66597;SDS011;57424;53.128;6.406;2022-09-20T07:57:48;1.65;;;0.88;;
66597;SDS011;57424;53.128;6.406;2022-09-20T08:00:13;4.03;;;0.80;;
66597;SDS011;57424;53.128;6.406;2022-09-20T08:02:39;2.95;;;0.73;;
66597;SDS011;57424;53.128;6.406;2022-09-20T08:05:05;1.65;;;1.00;;
66597;SDS011;57424;53.128;6.406;2022-09-20T08:07:31;7.10;;;1.27;;
66597;SDS011;57424;53.128;6.406;2022-09-20T08:09:57;1.88;;;0.90;;
66597;SDS011;57424;53.128;6.406;2022-09-20T08:12:23;4.07;;;0.80;;
66597;SDS011;57424;53.128;6.406;2022-09-20T08:14:50;4.05;;;0.90;;
66597;SDS011;57424;53.128;6.406;2022-09-20T08:17:16;1.98;;;0.90;;
66597;SDS011;57424;53.128;6.406;2022-09-20T08:19:42;3.72;;;0.95;;
66597;SDS011;57424;53.128;6.406;2022-09-20T08:22:08;2.47;;;0.82;;
66597;SDS011;57424;53.128;6.406;2022-09-20T08:24:36;11.07;;;0.93;;
66597;SDS011;57424;53.128;6.406;2022-09-20T08:27:02;7.75;;;0.98;;
66597;SDS011;57424;53.128;6.406;2022-09-20T08:29:28;6.32;;;0.82;;
66597;SDS011;57424;53.128;6.406;2022-09-20T08:31:54;3.47;;;0.88;;
66597;SDS011;57424;53.128;6.406;2022-09-20T08:36:49;3.55;;;0.90;;
66597;SDS011;57424;53.128;6.406;2022-09-20T08:39:16;1.65;;;0.73;;
66597;SDS011;57424;53.128;6.406;2022-09-20T08:41:44;1.77;;;0.80;;
66597;SDS011;57424;53.128;6.406;2022-09-20T08:44:32;2.47;;;0.80;;
66597;SDS011;57424;53.128;6.406;2022-09-20T08:49:46;2.33;;;0.88;;
66597;SDS011;57424;53.128;6.406;2022-09-20T08:52:17;3.72;;;0.95;;
66597;SDS011;57424;53.128;6.406;2022-09-20T08:54:54;4.68;;;1.15;;
66597;SDS011;57424;53.128;6.406;2022-09-20T08:57:21;1.85;;;0.90;;
66597;SDS011;57424;53.128;6.406;2022-09-20T08:59:49;3.88;;;0.90;;
66597;SDS011;57424;53.128;6.406;2022-09-20T09:02:16;7.80;;;1.50;;
66597;SDS011;57424;53.128;6.406;2022-09-20T09:04:43;10.75;;;1.52;;
66597;SDS011;57424;53.128;6.406;2022-09-20T09:07:13;5.35;;;1.20;;
66597;SDS011;57424;53.128;6.406;2022-09-20T09:09:43;3.25;;;1.25;;
66597;SDS011;57424;53.128;6.406;2022-09-20T09:12:29;4.68;;;0.88;;
66597;SDS011;57424;53.128;6.406;2022-09-20T09:15:00;4.53;;;1.05;;
66597;SDS011;57424;53.128;6.406;2022-09-20T09:17:42;4.82;;;0.98;;
66597;SDS011;57424;53.128;6.406;2022-09-20T09:20:15;6.70;;;1.23;;
66597;SDS011;57424;53.128;6.406;2022-09-20T09:22:45;3.33;;;1.20;;
66597;SDS011;57424;53.128;6.406;2022-09-20T09:27:56;5.28;;;1.10;;
66597;SDS011;57424;53.128;6.406;2022-09-20T09:30:34;2.03;;;0.85;;
66597;SDS011;57424;53.128;6.406;2022-09-20T09:33:18;2.90;;;1.10;;
66597;SDS011;57424;53.128;6.406;2022-09-20T09:36:11;5.88;;;1.15;;
66597;SDS011;57424;53.128;6.406;2022-09-20T09:38:39;5.72;;;1.73;;
66597;SDS011;57424;53.128;6.406;2022-09-20T09:41:50;3.03;;;0.77;;
66597;SDS011;57424;53.128;6.406;2022-09-20T09:44:03;2.35;;;0.80;;
66597;SDS011;57424;53.128;6.406;2022-09-20T09:46:34;2.08;;;0.77;;
66597;SDS011;57424;53.128;6.406;2022-09-20T09:51:36;5.25;;;0.90;;
66597;SDS011;57424;53.128;6.406;2022-09-20T09:54:02;3.38;;;1.15;;
66597;SDS011;57424;53.128;6.406;2022-09-20T10:13:04;3.30;;;1.00;;
66597;SDS011;57424;53.128;6.406;2022-09-20T10:16:05;4.40;;;1.10;;
66597;SDS011;57424;53.128;6.406;2022-09-20T10:18:52;2.65;;;0.95;;
66597;SDS011;57424;53.128;6.406;2022-09-20T10:21:31;6.18;;;0.90;;
66597;SDS011;57424;53.128;6.406;2022-09-20T10:24:21;3.28;;;1.10;;
66597;SDS011;57424;53.128;6.406;2022-09-20T10:27:11;5.35;;;0.98;;
66597;SDS011;57424;53.128;6.406;2022-09-20T10:30:10;2.40;;;1.08;;
66597;SDS011;57424;53.128;6.406;2022-09-20T10:38:14;3.65;;;0.90;;
66597;SDS011;57424;53.128;6.406;2022-09-20T10:46:50;3.20;;;0.90;;
66597;SDS011;57424;53.128;6.406;2022-09-20T10:49:43;2.38;;;1.00;;
66597;SDS011;57424;53.128;6.406;2022-09-20T10:52:26;1.63;;;0.73;;
66597;SDS011;57424;53.128;6.406;2022-09-20T10:57:52;4.15;;;1.10;;
66597;SDS011;57424;53.128;6.406;2022-09-20T11:03:28;4.57;;;0.88;;
66597;SDS011;57424;53.128;6.406;2022-09-20T11:09:02;1.13;;;0.70;;
66597;SDS011;57424;53.128;6.406;2022-09-20T11:11:34;3.95;;;1.13;;
66597;SDS011;57424;53.128;6.406;2022-09-20T11:14:21;3.75;;;0.70;;
66597;SDS011;57424;53.128;6.406;2022-09-20T11:19:46;1.80;;;0.68;;
66597;SDS011;57424;53.128;6.406;2022-09-20T11:22:42;10.13;;;0.95;;
66597;SDS011;57424;53.128;6.406;2022-09-20T11:25:13;2.70;;;0.65;;
66597;SDS011;57424;53.128;6.406;2022-09-20T11:27:50;2.80;;;0.93;;
66597;SDS011;57424;53.128;6.406;2022-09-20T11:30:22;2.50;;;0.90;;
66597;SDS011;57424;53.128;6.406;2022-09-20T11:32:49;3.17;;;1.05;;
66597;SDS011;57424;53.128;6.406;2022-09-20T11:38:27;2.53;;;0.88;;
66597;SDS011;57424;53.128;6.406;2022-09-20T11:41:03;5.75;;;1.15;;
66597;SDS011;57424;53.128;6.406;2022-09-20T11:43:33;8.00;;;1.35;;
66597;SDS011;57424;53.128;6.406;2022-09-20T11:46:02;4.00;;;1.20;;
66597;SDS011;57424;53.128;6.406;2022-09-20T11:51:19;5.60;;;0.90;;
66597;SDS011;57424;53.128;6.406;2022-09-20T11:53:54;2.90;;;0.90;;
66597;SDS011;57424;53.128;6.406;2022-09-20T11:56:30;3.50;;;1.05;;
66597;SDS011;57424;53.128;6.406;2022-09-20T11:58:58;9.80;;;1.17;;
66597;SDS011;57424;53.128;6.406;2022-09-20T12:04:19;3.00;;;0.88;;
66597;SDS011;57424;53.128;6.406;2022-09-20T12:06:57;2.97;;;0.88;;
66597;SDS011;57424;53.128;6.406;2022-09-20T12:09:37;2.45;;;0.82;;
66597;SDS011;57424;53.128;6.406;2022-09-20T12:14:55;3.63;;;0.75;;
66597;SDS011;57424;53.128;6.406;2022-09-20T12:26:01;1.98;;;0.80;;
66597;SDS011;57424;53.128;6.406;2022-09-20T12:28:56;3.17;;;0.93;;
66597;SDS011;57424;53.128;6.406;2022-09-20T12:39:26;4.82;;;0.90;;
66597;SDS011;57424;53.128;6.406;2022-09-20T12:42:00;3.80;;;0.90;;
66597;SDS011;57424;53.128;6.406;2022-09-20T12:44:35;4.15;;;1.13;;
66597;SDS011;57424;53.128;6.406;2022-09-20T12:49:39;4.18;;;1.10;;
66597;SDS011;57424;53.128;6.406;2022-09-20T13:03:10;3.45;;;1.10;;
66597;SDS011;57424;53.128;6.406;2022-09-20T13:05:42;2.42;;;1.00;;
66597;SDS011;57424;53.128;6.406;2022-09-20T13:10:59;3.30;;;0.67;;
66597;SDS011;57424;53.128;6.406;2022-09-20T13:13:47;2.17;;;0.88;;
66597;SDS011;57424;53.128;6.406;2022-09-20T13:16:20;4.35;;;1.25;;
66597;SDS011;57424;53.128;6.406;2022-09-20T13:18:56;3.78;;;0.70;;
66597;SDS011;57424;53.128;6.406;2022-09-20T13:21:29;2.90;;;1.00;;
66597;SDS011;57424;53.128;6.406;2022-09-20T13:23:56;2.72;;;0.75;;
66597;SDS011;57424;53.128;6.406;2022-09-20T13:26:24;3.40;;;1.03;;
66597;SDS011;57424;53.128;6.406;2022-09-20T13:28:54;5.97;;;1.00;;
66597;SDS011;57424;53.128;6.406;2022-09-20T13:31:26;2.83;;;0.70;;
66597;SDS011;57424;53.128;6.406;2022-09-20T13:33:53;4.43;;;1.10;;
66597;SDS011;57424;53.128;6.406;2022-09-20T13:36:29;7.28;;;1.23;;
66597;SDS011;57424;53.128;6.406;2022-09-20T13:38:55;7.35;;;1.00;;
66597;SDS011;57424;53.128;6.406;2022-09-20T13:41:22;4.18;;;0.90;;
66597;SDS011;57424;53.128;6.406;2022-09-20T13:43:51;7.22;;;1.08;;
66597;SDS011;57424;53.128;6.406;2022-09-20T13:48:45;7.85;;;1.25;;
66597;SDS011;57424;53.128;6.406;2022-09-20T13:51:19;2.35;;;0.90;;
66597;SDS011;57424;53.128;6.406;2022-09-20T13:53:52;4.35;;;0.90;;
66597;SDS011;57424;53.128;6.406;2022-09-20T13:56:27;1.83;;;0.95;;
66597;SDS011;57424;53.128;6.406;2022-09-20T13:58:54;4.53;;;1.17;;
66597;SDS011;57424;53.128;6.406;2022-09-20T14:01:27;3.72;;;0.93;;
66597;SDS011;57424;53.128;6.406;2022-09-20T14:03:56;4.15;;;0.80;;
66597;SDS011;57424;53.128;6.406;2022-09-20T14:06:27;1.73;;;0.77;;
66597;SDS011;57424;53.128;6.406;2022-09-20T14:08:53;3.78;;;0.80;;
66597;SDS011;57424;53.128;6.406;2022-09-20T14:11:22;5.45;;;0.80;;
66597;SDS011;57424;53.128;6.406;2022-09-20T14:13:52;3.45;;;1.00;;
66597;SDS011;57424;53.128;6.406;2022-09-20T14:16:32;3.22;;;0.60;;
66597;SDS011;57424;53.128;6.406;2022-09-20T14:19:02;3.83;;;0.70;;
66597;SDS011;57424;53.128;6.406;2022-09-20T14:21:30;2.40;;;0.80;;
66597;SDS011;57424;53.128;6.406;2022-09-20T14:24:06;5.55;;;0.52;;
66597;SDS011;57424;53.128;6.406;2022-09-20T14:27:00;3.30;;;0.80;;
66597;SDS011;57424;53.128;6.406;2022-09-20T14:34:41;4.07;;;0.90;;
66597;SDS011;57424;53.128;6.406;2022-09-20T14:37:20;3.47;;;0.82;;
66597;SDS011;57424;53.128;6.406;2022-09-20T14:39:55;2.28;;;0.80;;
66597;SDS011;57424;53.128;6.406;2022-09-20T14:42:28;6.28;;;0.90;;
66597;SDS011;57424;53.128;6.406;2022-09-20T14:44:57;4.53;;;0.90;;
66597;SDS011;57424;53.128;6.406;2022-09-20T14:47:26;1.90;;;0.73;;
66597;SDS011;57424;53.128;6.406;2022-09-20T14:50:00;4.07;;;0.70;;
66597;SDS011;57424;53.128;6.406;2022-09-20T14:54:59;2.03;;;0.80;;
66597;SDS011;57424;53.128;6.406;2022-09-20T14:57:26;2.65;;;0.80;;
66597;SDS011;57424;53.128;6.406;2022-09-20T14:59:55;3.58;;;0.65;;
66597;SDS011;57424;53.128;6.406;2022-09-20T15:02:23;1.60;;;0.70;;
66597;SDS011;57424;53.128;6.406;2022-09-20T15:04:56;3.40;;;0.60;;
66597;SDS011;57424;53.128;6.406;2022-09-20T15:07:24;3.42;;;0.70;;
66597;SDS011;57424;53.128;6.406;2022-09-20T15:09:49;2.70;;;0.88;;
66597;SDS011;57424;53.128;6.406;2022-09-20T15:12:16;2.08;;;0.82;;
66597;SDS011;57424;53.128;6.406;2022-09-20T15:14:43;4.47;;;0.80;;
66597;SDS011;57424;53.128;6.406;2022-09-20T15:17:13;3.75;;;0.77;;
66597;SDS011;57424;53.128;6.406;2022-09-20T15:19:41;9.13;;;0.88;;
66597;SDS011;57424;53.128;6.406;2022-09-20T15:22:10;3.35;;;0.80;;
66597;SDS011;57424;53.128;6.406;2022-09-20T15:24:36;3.05;;;0.80;;
66597;SDS011;57424;53.128;6.406;2022-09-20T15:27:02;1.52;;;0.70;;
66597;SDS011;57424;53.128;6.406;2022-09-20T15:29:28;4.78;;;0.80;;
66597;SDS011;57424;53.128;6.406;2022-09-20T15:31:54;3.50;;;0.70;;
66597;SDS011;57424;53.128;6.406;2022-09-20T15:34:20;1.58;;;0.65;;
66597;SDS011;57424;53.128;6.406;2022-09-20T15:36:45;2.70;;;0.70;;
66597;SDS011;57424;53.128;6.406;2022-09-20T15:39:12;3.28;;;0.70;;
66597;SDS011;57424;53.128;6.406;2022-09-20T15:41:38;4.10;;;0.93;;
66597;SDS011;57424;53.128;6.406;2022-09-20T15:44:04;2.28;;;0.93;;
66597;SDS011;57424;53.128;6.406;2022-09-20T15:46:31;2.88;;;0.50;;
66597;SDS011;57424;53.128;6.406;2022-09-20T15:48:58;2.25;;;0.68;;
66597;SDS011;57424;53.128;6.406;2022-09-20T15:51:24;2.13;;;0.73;;
66597;SDS011;57424;53.128;6.406;2022-09-20T15:53:57;4.00;;;0.88;;
66597;SDS011;57424;53.128;6.406;2022-09-20T15:56:28;1.58;;;0.70;;
66597;SDS011;57424;53.128;6.406;2022-09-20T15:59:06;7.00;;;1.55;;
66597;SDS011;57424;53.128;6.406;2022-09-20T16:01:34;9.40;;;1.52;;
66597;SDS011;57424;53.128;6.406;2022-09-20T16:04:04;7.95;;;2.05;;
66597;SDS011;57424;53.128;6.406;2022-09-20T16:06:34;7.97;;;2.60;;
66597;SDS011;57424;53.128;6.406;2022-09-20T16:09:01;10.15;;;3.20;;
66597;SDS011;57424;53.128;6.406;2022-09-20T16:11:27;10.35;;;3.00;;
66597;SDS011;57424;53.128;6.406;2022-09-20T16:13:53;11.10;;;3.53;;
66597;SDS011;57424;53.128;6.406;2022-09-20T16:16:20;8.02;;;2.88;;
66597;SDS011;57424;53.128;6.406;2022-09-20T16:18:46;8.20;;;3.10;;
66597;SDS011;57424;53.128;6.406;2022-09-20T16:21:30;13.52;;;3.42;;
66597;SDS011;57424;53.128;6.406;2022-09-20T16:23:56;7.45;;;2.47;;
66597;SDS011;57424;53.128;6.406;2022-09-20T16:26:23;8.70;;;2.60;;
66597;SDS011;57424;53.128;6.406;2022-09-20T16:34:06;8.75;;;2.53;;
66597;SDS011;57424;53.128;6.406;2022-09-20T16:36:38;7.65;;;1.95;;
66597;SDS011;57424;53.128;6.406;2022-09-20T16:39:07;6.35;;;1.70;;
66597;SDS011;57424;53.128;6.406;2022-09-20T16:41:34;7.93;;;1.90;;
66597;SDS011;57424;53.128;6.406;2022-09-20T16:44:00;4.70;;;1.60;;
66597;SDS011;57424;53.128;6.406;2022-09-20T16:46:26;4.20;;;1.48;;
66597;SDS011;57424;53.128;6.406;2022-09-20T16:48:52;5.70;;;1.60;;
66597;SDS011;57424;53.128;6.406;2022-09-20T16:51:19;3.73;;;1.67;;
66597;SDS011;57424;53.128;6.406;2022-09-20T16:53:47;6.93;;;1.70;;
66597;SDS011;57424;53.128;6.406;2022-09-20T16:56:26;6.45;;;1.95;;
66597;SDS011;57424;53.128;6.406;2022-09-20T16:58:57;5.60;;;1.83;;
66597;SDS011;57424;53.128;6.406;2022-09-20T17:01:24;5.85;;;1.73;;
66597;SDS011;57424;53.128;6.406;2022-09-20T17:03:49;7.97;;;1.60;;
66597;SDS011;57424;53.128;6.406;2022-09-20T17:06:15;6.20;;;1.42;;
66597;SDS011;57424;53.128;6.406;2022-09-20T17:08:42;5.20;;;1.75;;
66597;SDS011;57424;53.128;6.406;2022-09-20T17:11:17;3.35;;;1.08;;
66597;SDS011;57424;53.128;6.406;2022-09-20T17:13:47;5.70;;;1.50;;
66597;SDS011;57424;53.128;6.406;2022-09-20T17:16:19;5.07;;;1.50;;
66597;SDS011;57424;53.128;6.406;2022-09-20T17:18:52;4.45;;;1.52;;
66597;SDS011;57424;53.128;6.406;2022-09-20T17:21:22;4.00;;;1.48;;
66597;SDS011;57424;53.128;6.406;2022-09-20T17:23:49;5.88;;;1.38;;
66597;SDS011;57424;53.128;6.406;2022-09-20T17:28:49;4.18;;;1.42;;
66597;SDS011;57424;53.128;6.406;2022-09-20T17:31:18;6.70;;;1.55;;
66597;SDS011;57424;53.128;6.406;2022-09-20T17:33:45;4.30;;;1.30;;
66597;SDS011;57424;53.128;6.406;2022-09-20T17:36:12;4.93;;;1.65;;
66597;SDS011;57424;53.128;6.406;2022-09-20T17:38:42;2.92;;;1.10;;
66597;SDS011;57424;53.128;6.406;2022-09-20T17:41:13;6.50;;;1.80;;
66597;SDS011;57424;53.128;6.406;2022-09-20T17:43:43;6.85;;;1.50;;
66597;SDS011;57424;53.128;6.406;2022-09-20T17:48:54;3.80;;;1.33;;
66597;SDS011;57424;53.128;6.406;2022-09-20T17:51:30;6.82;;;1.70;;
66597;SDS011;57424;53.128;6.406;2022-09-20T17:53:57;4.80;;;1.25;;
66597;SDS011;57424;53.128;6.406;2022-09-20T17:56:23;4.90;;;1.58;;
66597;SDS011;57424;53.128;6.406;2022-09-20T17:58:53;6.13;;;1.65;;
66597;SDS011;57424;53.128;6.406;2022-09-20T18:01:20;3.13;;;1.13;;
66597;SDS011;57424;53.128;6.406;2022-09-20T18:03:46;4.55;;;1.50;;
66597;SDS011;57424;53.128;6.406;2022-09-20T18:06:19;6.55;;;1.50;;
66597;SDS011;57424;53.128;6.406;2022-09-20T18:08:49;4.68;;;1.02;;
66597;SDS011;57424;53.128;6.406;2022-09-20T18:11:16;4.50;;;1.83;;
66597;SDS011;57424;53.128;6.406;2022-09-20T18:13:43;5.22;;;1.10;;
66597;SDS011;57424;53.128;6.406;2022-09-20T18:16:10;3.38;;;1.30;;
66597;SDS011;57424;53.128;6.406;2022-09-20T18:18:40;3.03;;;1.20;;
66597;SDS011;57424;53.128;6.406;2022-09-20T18:21:08;2.92;;;1.00;;
66597;SDS011;57424;53.128;6.406;2022-09-20T18:23:38;4.25;;;1.35;;
66597;SDS011;57424;53.128;6.406;2022-09-20T18:26:05;5.25;;;1.40;;
66597;SDS011;57424;53.128;6.406;2022-09-20T18:31:26;4.57;;;1.30;;
66597;SDS011;57424;53.128;6.406;2022-09-20T18:33:56;2.58;;;1.10;;
66597;SDS011;57424;53.128;6.406;2022-09-20T18:38:50;4.07;;;1.20;;
66597;SDS011;57424;53.128;6.406;2022-09-20T18:41:22;3.13;;;1.10;;
66597;SDS011;57424;53.128;6.406;2022-09-20T18:43:50;4.03;;;1.40;;
66597;SDS011;57424;53.128;6.406;2022-09-20T18:46:17;2.88;;;1.13;;
66597;SDS011;57424;53.128;6.406;2022-09-20T18:48:49;5.25;;;1.50;;
66597;SDS011;57424;53.128;6.406;2022-09-20T18:51:15;3.57;;;1.30;;
66597;SDS011;57424;53.128;6.406;2022-09-20T18:53:41;4.50;;;0.95;;
66597;SDS011;57424;53.128;6.406;2022-09-20T18:56:07;5.07;;;1.50;;
66597;SDS011;57424;53.128;6.406;2022-09-20T18:58:42;4.60;;;1.00;;
66597;SDS011;57424;53.128;6.406;2022-09-20T19:04:38;6.63;;;1.17;;
66597;SDS011;57424;53.128;6.406;2022-09-20T19:06:53;9.60;;;1.35;;
66597;SDS011;57424;53.128;6.406;2022-09-20T19:09:45;3.97;;;1.13;;
66597;SDS011;57424;53.128;6.406;2022-09-20T19:12:17;2.80;;;1.05;;
66597;SDS011;57424;53.128;6.406;2022-09-20T19:17:19;4.05;;;1.50;;
66597;SDS011;57424;53.128;6.406;2022-09-20T19:20:01;2.38;;;1.10;;
66597;SDS011;57424;53.128;6.406;2022-09-20T19:22:34;4.20;;;1.27;;
66597;SDS011;57424;53.128;6.406;2022-09-20T19:25:11;2.80;;;1.10;;
66597;SDS011;57424;53.128;6.406;2022-09-20T19:27:44;2.67;;;0.90;;
66597;SDS011;57424;53.128;6.406;2022-09-20T19:30:13;3.58;;;1.20;;
66597;SDS011;57424;53.128;6.406;2022-09-20T19:32:39;2.90;;;1.30;;
66597;SDS011;57424;53.128;6.406;2022-09-20T19:35:08;2.75;;;1.00;;
66597;SDS011;57424;53.128;6.406;2022-09-20T19:37:59;4.30;;;1.30;;
66597;SDS011;57424;53.128;6.406;2022-09-20T19:43:47;3.28;;;1.10;;
66597;SDS011;57424;53.128;6.406;2022-09-20T19:49:12;4.38;;;1.50;;
66597;SDS011;57424;53.128;6.406;2022-09-20T19:51:44;1.77;;;0.90;;
66597;SDS011;57424;53.128;6.406;2022-09-20T19:54:10;2.72;;;0.90;;
66597;SDS011;57424;53.128;6.406;2022-09-20T19:56:44;5.03;;;1.40;;
66597;SDS011;57424;53.128;6.406;2022-09-20T19:59:21;2.95;;;1.33;;
66597;SDS011;57424;53.128;6.406;2022-09-20T20:01:48;3.10;;;1.40;;
66597;SDS011;57424;53.128;6.406;2022-09-20T20:04:14;4.32;;;1.63;;
66597;SDS011;57424;53.128;6.406;2022-09-20T20:09:50;3.30;;;1.33;;
66597;SDS011;57424;53.128;6.406;2022-09-20T20:12:41;1.92;;;1.30;;
66597;SDS011;57424;53.128;6.406;2022-09-20T20:15:35;3.15;;;1.10;;
66597;SDS011;57424;53.128;6.406;2022-09-20T20:18:19;1.85;;;1.25;;
66597;SDS011;57424;53.128;6.406;2022-09-20T20:20:53;3.42;;;1.20;;
66597;SDS011;57424;53.128;6.406;2022-09-20T20:28:47;6.63;;;1.38;;
66597;SDS011;57424;53.128;6.406;2022-09-20T20:31:14;5.30;;;1.20;;
66597;SDS011;57424;53.128;6.406;2022-09-20T20:33:40;2.50;;;1.20;;
66597;SDS011;57424;53.128;6.406;2022-09-20T20:36:06;4.85;;;1.52;;
66597;SDS011;57424;53.128;6.406;2022-09-20T20:38:33;2.33;;;1.30;;
66597;SDS011;57424;53.128;6.406;2022-09-20T20:43:29;2.95;;;1.23;;
66597;SDS011;57424;53.128;6.406;2022-09-20T20:46:00;3.15;;;1.30;;
66597;SDS011;57424;53.128;6.406;2022-09-20T20:48:26;7.00;;;1.58;;
66597;SDS011;57424;53.128;6.406;2022-09-20T20:51:03;3.03;;;1.30;;
66597;SDS011;57424;53.128;6.406;2022-09-20T20:53:36;4.72;;;1.45;;
66597;SDS011;57424;53.128;6.406;2022-09-20T20:56:12;3.30;;;1.25;;
66597;SDS011;57424;53.128;6.406;2022-09-20T20:58:39;3.92;;;1.20;;
66597;SDS011;57424;53.128;6.406;2022-09-20T21:01:28;6.30;;;1.40;;